createdAt,value
2017-06-05T00:01:22.031Z,3.03
2017-06-05T00:03:49.487Z,3.07
2017-06-05T00:06:16.931Z,2.97
2017-06-05T00:08:44.376Z,3.73
2017-06-05T00:11:11.812Z,3.00
2017-06-05T00:13:40.028Z,3.10
2017-06-05T00:16:07.472Z,2.47
2017-06-05T00:18:34.920Z,3.27
2017-06-05T00:21:02.350Z,3.30
2017-06-05T00:23:30.572Z,2.73
2017-06-05T00:25:58.015Z,3.57
2017-06-05T00:28:25.464Z,3.70
2017-06-05T00:30:52.901Z,3.30
2017-06-05T00:33:21.111Z,3.50
2017-06-05T00:35:48.563Z,3.57
2017-06-05T00:38:15.999Z,3.63
2017-06-05T00:40:43.491Z,3.03
2017-06-05T00:43:10.940Z,3.10
2017-06-05T00:45:38.397Z,3.50
2017-06-05T00:48:05.849Z,3.70
2017-06-05T00:50:33.307Z,3.37
2017-06-05T00:53:00.757Z,3.17
2017-06-05T00:55:28.200Z,3.43
2017-06-05T00:57:55.639Z,2.67
2017-06-05T01:00:23.086Z,2.20
2017-06-05T01:02:51.292Z,3.07
2017-06-05T01:05:18.735Z,2.73
2017-06-05T01:07:46.233Z,2.83
2017-06-05T01:10:13.679Z,5.57
2017-06-05T01:12:41.127Z,3.20
2017-06-05T01:15:08.572Z,3.47
2017-06-05T01:17:36.028Z,2.97
2017-06-05T01:20:03.467Z,2.40
2017-06-05T01:22:30.917Z,2.33
2017-06-05T01:24:59.127Z,2.77
2017-06-05T01:27:26.584Z,2.83
2017-06-05T01:29:54.024Z,2.97
2017-06-05T01:32:21.467Z,2.63
2017-06-05T01:34:48.908Z,3.07
2017-06-05T01:37:17.124Z,3.50
2017-06-05T01:39:44.566Z,2.90
2017-06-05T01:42:12.012Z,3.13
2017-06-05T01:44:39.451Z,3.33
2017-06-05T01:47:06.900Z,2.80
2017-06-05T01:49:34.338Z,3.13
2017-06-05T01:52:01.809Z,3.70
2017-06-05T01:54:29.240Z,3.03
2017-06-05T01:56:56.688Z,3.47
2017-06-05T01:59:24.136Z,3.00
2017-06-05T02:01:51.580Z,3.33
2017-06-05T02:04:19.018Z,4.40
2017-06-05T02:06:46.462Z,3.23
2017-06-05T02:09:13.907Z,3.03
2017-06-05T02:11:41.338Z,2.40
2017-06-05T02:14:08.791Z,3.30
2017-06-05T02:16:36.235Z,2.67
2017-06-05T02:19:03.679Z,2.67
2017-06-05T02:21:31.120Z,3.30
2017-06-05T02:23:58.571Z,3.07
2017-06-05T02:26:26.007Z,2.63
2017-06-05T02:28:54.220Z,3.63
2017-06-05T02:33:55.671Z,2.90
2017-06-05T02:36:23.111Z,3.07
2017-06-05T02:38:50.559Z,3.53
2017-06-05T02:41:18.773Z,3.20
2017-06-05T02:43:46.228Z,3.20
2017-06-05T02:46:13.671Z,3.57
2017-06-05T02:48:41.119Z,3.30
2017-06-05T02:51:08.570Z,4.80
2017-06-05T02:53:36.011Z,5.10
2017-06-05T02:56:04.224Z,3.30
2017-06-05T02:58:31.667Z,3.43
2017-06-05T03:00:59.124Z,3.73
2017-06-05T03:03:26.564Z,3.40
2017-06-05T03:05:54.007Z,3.77
2017-06-05T03:08:22.225Z,3.40
2017-06-05T03:10:49.679Z,3.70
2017-06-05T03:13:17.124Z,3.60
2017-06-05T03:15:44.571Z,3.47
2017-06-05T03:18:12.019Z,3.53
2017-06-05T03:20:39.463Z,4.27
2017-06-05T03:23:07.679Z,3.80
2017-06-05T03:25:35.132Z,2.90
2017-06-05T03:28:02.575Z,2.90
2017-06-05T03:30:30.028Z,3.80
2017-06-05T03:32:57.463Z,3.57
2017-06-05T03:35:25.679Z,4.17
2017-06-05T03:37:53.120Z,3.50
2017-06-05T03:40:20.588Z,3.37
2017-06-05T03:42:48.030Z,3.57
2017-06-05T03:45:15.481Z,3.50
2017-06-05T03:47:42.919Z,3.10
2017-06-05T03:50:11.131Z,3.73
2017-06-05T03:52:38.576Z,3.60
2017-06-05T03:55:06.016Z,3.80
2017-06-05T03:57:33.459Z,3.00
2017-06-05T04:00:01.675Z,3.63
2017-06-05T04:02:29.126Z,4.33
2017-06-05T04:04:56.578Z,3.07
2017-06-05T04:07:24.028Z,3.10
2017-06-05T04:09:51.468Z,3.30
2017-06-05T04:12:18.915Z,3.20
2017-06-05T04:14:47.128Z,4.20
2017-06-05T04:17:14.584Z,3.90
2017-06-05T04:19:42.033Z,3.43
2017-06-05T04:22:09.471Z,3.90
2017-06-05T04:24:36.912Z,3.57
2017-06-05T04:27:05.124Z,3.10
2017-06-05T04:29:32.582Z,3.20
2017-06-05T04:32:00.039Z,3.83
2017-06-05T04:34:27.479Z,3.83
2017-06-05T04:36:54.924Z,2.93
2017-06-05T04:39:22.367Z,4.30
2017-06-05T04:41:50.592Z,3.43
2017-06-05T04:44:18.031Z,3.63
2017-06-05T04:46:45.490Z,3.47
2017-06-05T04:49:12.941Z,3.50
2017-06-05T04:51:40.383Z,3.93
2017-06-05T04:54:07.823Z,4.00
2017-06-05T04:56:36.060Z,3.40
2017-06-05T04:59:03.491Z,3.80
2017-06-05T05:01:30.943Z,4.00
2017-06-05T05:03:58.400Z,4.97
2017-06-05T05:06:25.844Z,4.30
2017-06-05T05:08:53.292Z,4.37
2017-06-05T05:11:20.732Z,4.20
2017-06-05T05:13:48.943Z,5.67
2017-06-05T05:16:16.386Z,5.13
2017-06-05T05:18:43.827Z,4.60
2017-06-05T05:21:11.268Z,5.73
2017-06-05T05:23:39.482Z,4.30
2017-06-05T05:26:06.931Z,5.57
2017-06-05T05:28:34.371Z,4.53
2017-06-05T05:31:01.811Z,5.50
2017-06-05T05:33:30.027Z,4.97
2017-06-05T05:35:57.472Z,7.23
2017-06-05T05:38:24.924Z,6.17
2017-06-05T05:40:52.379Z,5.03
2017-06-05T05:43:19.839Z,4.70
2017-06-05T05:45:47.286Z,5.27
2017-06-05T05:48:14.767Z,10.23
2017-06-05T05:50:42.216Z,5.07
2017-06-05T05:53:09.660Z,6.27
2017-06-05T05:55:37.111Z,6.60
2017-06-05T05:58:04.554Z,6.10
2017-06-05T06:00:32.003Z,6.47
2017-06-05T06:02:59.447Z,6.27
2017-06-05T06:05:27.665Z,6.70
2017-06-05T06:07:55.118Z,6.17
2017-06-05T06:10:22.567Z,6.50
2017-06-05T06:12:50.007Z,6.13
2017-06-05T06:15:17.459Z,7.20
2017-06-05T06:17:44.899Z,7.27
2017-06-05T06:20:13.112Z,7.40
2017-06-05T06:22:40.557Z,8.17
2017-06-05T06:25:08.003Z,8.27
2017-06-05T06:27:35.443Z,7.80
2017-06-05T06:30:03.655Z,7.40
2017-06-05T06:32:31.095Z,7.47
2017-06-05T06:34:58.547Z,7.67
2017-06-05T06:37:25.991Z,6.60
2017-06-05T06:39:53.440Z,7.80
2017-06-05T06:42:21.651Z,7.57
2017-06-05T06:44:49.098Z,8.93
2017-06-05T06:47:16.536Z,8.10
2017-06-05T06:49:43.971Z,9.37
2017-06-05T06:52:12.194Z,8.47
2017-06-05T06:54:39.632Z,7.83
2017-06-05T06:57:07.075Z,6.97
2017-06-05T06:59:34.519Z,9.50
2017-06-05T07:02:02.732Z,9.00
2017-06-05T07:04:30.172Z,9.27
2017-06-05T07:06:57.619Z,11.50
2017-06-05T07:09:25.058Z,7.83
2017-06-05T07:11:52.511Z,9.00
2017-06-05T07:14:19.956Z,11.07
2017-06-05T07:16:48.171Z,8.93
2017-06-05T07:19:15.627Z,9.57
2017-06-05T07:21:43.097Z,9.77
2017-06-05T07:24:10.548Z,10.67
2017-06-05T07:26:37.992Z,9.60
2017-06-05T07:29:05.448Z,9.60
2017-06-05T07:31:32.890Z,10.23
2017-06-05T07:34:00.335Z,10.20
2017-06-05T07:36:27.784Z,10.07
2017-06-05T07:38:56.032Z,9.57
2017-06-05T07:41:23.451Z,9.77
2017-06-05T07:43:50.908Z,10.37
2017-06-05T07:46:18.364Z,13.70
2017-06-05T07:48:45.820Z,10.30
2017-06-05T07:51:13.274Z,11.50
2017-06-05T07:53:40.731Z,10.87
2017-06-05T07:56:08.176Z,9.80
2017-06-05T07:58:35.653Z,9.87
2017-06-05T08:01:03.115Z,11.23
2017-06-05T08:03:30.567Z,13.50
2017-06-05T08:05:58.023Z,13.80
2017-06-05T08:08:25.469Z,13.37
2017-06-05T08:10:52.915Z,12.73
2017-06-05T08:13:20.369Z,11.73
2017-06-05T08:15:47.827Z,12.90
2017-06-05T08:18:15.275Z,11.77
2017-06-05T08:20:42.731Z,10.63
2017-06-05T08:23:10.174Z,11.83
2017-06-05T08:25:38.404Z,13.90
2017-06-05T08:28:05.844Z,10.93
2017-06-05T08:30:33.307Z,12.80
2017-06-05T08:33:00.760Z,14.47
2017-06-05T08:35:28.215Z,14.40
2017-06-05T08:37:55.671Z,15.47
2017-06-05T08:40:23.130Z,14.20
2017-06-05T08:42:50.587Z,10.77
2017-06-05T08:45:18.040Z,13.70
2017-06-05T08:47:45.496Z,12.87
2017-06-05T08:50:12.951Z,11.90
2017-06-05T08:52:40.412Z,15.07
2017-06-05T08:55:07.863Z,11.80
2017-06-05T08:57:35.322Z,12.07
2017-06-05T09:00:02.779Z,12.67
2017-06-05T09:02:30.231Z,12.07
2017-06-05T09:04:57.692Z,12.83
2017-06-05T09:07:25.143Z,15.80
2017-06-05T09:09:52.599Z,13.27
2017-06-05T09:12:20.096Z,12.20
2017-06-05T09:14:47.537Z,11.50
2017-06-05T09:17:14.984Z,14.50
2017-06-05T09:19:42.443Z,13.00
2017-06-05T09:22:14.715Z,11.80
2017-06-05T09:24:42.166Z,12.97
2017-06-05T09:27:09.619Z,12.37
2017-06-05T09:29:42.915Z,13.30
2017-06-05T09:32:10.359Z,10.60
2017-06-05T09:34:37.819Z,12.60
2017-06-05T09:37:05.270Z,11.17
2017-06-05T09:39:33.488Z,12.70
2017-06-05T09:42:00.931Z,10.10
2017-06-05T09:44:28.390Z,10.93
2017-06-05T09:46:55.847Z,11.80
2017-06-05T09:49:23.328Z,11.90
2017-06-05T09:51:50.779Z,11.43
2017-06-05T09:54:18.227Z,11.07
2017-06-05T09:56:46.447Z,13.00
2017-06-05T09:59:13.903Z,15.27
2017-06-05T10:01:41.359Z,14.13
2017-06-05T10:04:08.816Z,14.40
2017-06-05T10:06:36.275Z,15.47
2017-06-05T10:09:03.723Z,19.93
2017-06-05T10:11:31.179Z,12.83
2017-06-05T10:13:58.643Z,14.10
2017-06-05T10:16:26.099Z,18.60
2017-06-05T10:18:53.552Z,13.63
2017-06-05T10:21:20.997Z,11.93
2017-06-05T10:23:48.447Z,12.77
2017-06-05T10:26:15.903Z,13.70
2017-06-05T10:28:43.353Z,13.97
2017-06-05T10:31:10.798Z,12.93
2017-06-05T10:33:38.255Z,13.00
2017-06-05T10:36:05.703Z,12.90
2017-06-05T10:38:33.935Z,13.63
2017-06-05T10:41:01.383Z,14.33
2017-06-05T10:43:28.840Z,11.10
2017-06-05T10:45:56.290Z,12.70
2017-06-05T10:48:23.759Z,12.80
2017-06-05T10:50:51.983Z,13.60
2017-06-05T10:53:19.427Z,11.77
2017-06-05T10:55:46.889Z,11.40
2017-06-05T10:58:14.336Z,11.93
2017-06-05T11:00:41.783Z,13.83
2017-06-05T11:03:09.234Z,13.40
2017-06-05T11:05:36.688Z,14.83
2017-06-05T11:08:04.139Z,13.73
2017-06-05T11:10:31.595Z,11.80
2017-06-05T11:12:59.046Z,15.07
2017-06-05T11:15:26.516Z,12.83
2017-06-05T11:17:53.972Z,14.00
2017-06-05T11:20:21.428Z,12.67
2017-06-05T11:22:48.884Z,12.40
2017-06-05T11:25:17.095Z,12.97
2017-06-05T11:27:44.549Z,13.17
2017-06-05T11:30:11.994Z,12.67
2017-06-05T11:32:40.223Z,13.80
2017-06-05T11:35:07.679Z,14.27
2017-06-05T11:37:35.138Z,14.30
2017-06-05T11:40:02.591Z,14.80
2017-06-05T11:42:30.038Z,15.80
2017-06-05T11:44:57.495Z,12.80
2017-06-05T11:47:24.947Z,12.43
2017-06-05T11:49:52.411Z,14.10
2017-06-05T11:52:19.867Z,13.97
2017-06-05T11:54:47.324Z,11.30
2017-06-05T11:57:15.548Z,12.67
2017-06-05T11:59:43.002Z,12.40
2017-06-05T12:02:10.483Z,12.03
2017-06-05T12:04:37.928Z,12.93
2017-06-05T12:07:05.379Z,12.10
2017-06-05T12:09:32.845Z,12.50
2017-06-05T12:12:00.291Z,13.57
2017-06-05T12:14:27.747Z,13.23
2017-06-05T12:16:55.957Z,11.27
2017-06-05T12:19:23.411Z,12.10
2017-06-05T12:21:50.854Z,12.40
2017-06-05T12:24:18.307Z,10.87
2017-06-05T12:26:45.755Z,12.17
2017-06-05T12:29:13.219Z,11.63
2017-06-05T12:31:41.470Z,11.77
2017-06-05T12:34:08.931Z,14.60
2017-06-05T12:36:36.410Z,11.57
2017-06-05T12:39:03.847Z,11.50
2017-06-05T12:41:31.291Z,13.93
2017-06-05T12:43:58.742Z,11.63
2017-06-05T12:46:26.195Z,14.47
2017-06-05T12:48:53.648Z,11.73
2017-06-05T12:51:21.859Z,11.20
2017-06-05T12:53:49.333Z,10.80
2017-06-05T12:56:16.788Z,11.37
2017-06-05T12:58:44.226Z,9.93
2017-06-05T13:01:12.447Z,11.50
2017-06-05T13:03:39.903Z,12.03
2017-06-05T13:06:08.124Z,12.77
2017-06-05T13:08:35.572Z,12.40
2017-06-05T13:11:03.019Z,13.10
2017-06-05T13:13:30.481Z,13.47
2017-06-05T13:15:57.926Z,11.77
2017-06-05T13:18:25.383Z,10.40
2017-06-05T13:20:52.836Z,11.60
2017-06-05T13:23:20.282Z,11.30
2017-06-05T13:25:47.739Z,11.67
2017-06-05T13:28:15.950Z,11.70
2017-06-05T13:30:43.407Z,12.10
2017-06-05T13:33:10.842Z,10.60
2017-06-05T13:35:39.088Z,10.00
2017-06-05T13:38:06.547Z,13.93
2017-06-05T13:40:34.007Z,11.17
2017-06-05T13:43:02.227Z,10.63
2017-06-05T13:45:29.688Z,11.40
2017-06-05T13:47:57.138Z,10.30
2017-06-05T13:50:24.583Z,11.03
2017-06-05T13:52:52.035Z,10.63
2017-06-05T13:55:20.248Z,10.80
2017-06-05T13:57:47.703Z,12.23
2017-06-05T14:00:15.148Z,10.70
2017-06-05T14:02:42.606Z,11.07
2017-06-05T14:05:10.045Z,9.80
2017-06-05T14:07:37.496Z,13.67
2017-06-05T14:10:04.959Z,11.63
2017-06-05T14:12:33.778Z,10.70
2017-06-05T14:15:01.222Z,13.47
2017-06-05T14:17:28.695Z,14.70
2017-06-05T14:19:56.911Z,11.60
2017-06-05T14:22:24.358Z,11.27
2017-06-05T14:24:51.815Z,11.00
2017-06-05T14:27:19.271Z,11.63
2017-06-05T14:29:46.728Z,12.03
2017-06-05T14:32:14.204Z,11.87
2017-06-05T14:34:41.664Z,13.63
2017-06-05T14:37:09.879Z,10.17
2017-06-05T14:39:37.342Z,11.27
2017-06-05T14:42:04.795Z,11.03
2017-06-05T14:44:32.255Z,13.50
2017-06-05T14:46:59.686Z,9.90
2017-06-05T14:49:27.135Z,11.03
2017-06-05T14:51:54.579Z,11.00
2017-06-05T14:54:22.035Z,9.20
2017-06-05T14:56:49.479Z,10.90
2017-06-05T14:59:17.020Z,10.53
2017-06-05T15:01:45.239Z,12.13
2017-06-05T15:04:12.691Z,10.73
2017-06-05T15:06:40.146Z,9.90
2017-06-05T15:09:07.602Z,9.73
2017-06-05T15:11:35.059Z,9.70
2017-06-05T15:14:02.511Z,9.70
2017-06-05T15:16:29.966Z,9.80
2017-06-05T15:18:57.419Z,8.90
2017-06-05T15:21:25.024Z,9.83
2017-06-05T15:23:52.637Z,8.73
2017-06-05T15:26:20.082Z,9.17
2017-06-05T15:28:47.521Z,9.50
2017-06-05T15:31:15.739Z,8.27
2017-06-05T15:33:43.195Z,7.47
2017-06-05T15:36:10.651Z,7.77
2017-06-05T15:38:38.095Z,7.87
2017-06-05T15:41:05.568Z,5.90
2017-06-05T15:43:33.022Z,5.50
2017-06-05T15:46:00.462Z,6.30
2017-06-05T15:48:27.926Z,7.27
2017-06-05T15:50:55.382Z,6.60
2017-06-05T15:53:22.823Z,6.80
2017-06-05T15:55:50.264Z,6.60
2017-06-05T15:58:18.480Z,6.03
2017-06-05T16:00:45.935Z,6.60
2017-06-05T16:03:13.387Z,6.47
2017-06-05T16:05:40.831Z,6.60
2017-06-05T16:08:08.275Z,8.33
2017-06-05T16:10:35.731Z,8.07
2017-06-05T16:13:03.185Z,7.97
2017-06-05T16:15:30.626Z,8.60
2017-06-05T16:17:58.075Z,7.40
2017-06-05T16:20:26.284Z,6.20
2017-06-05T16:22:53.754Z,6.50
2017-06-05T16:25:21.203Z,7.10
2017-06-05T16:27:48.644Z,6.57
2017-06-05T16:30:16.093Z,8.33
2017-06-05T16:32:43.535Z,12.17
2017-06-05T16:35:11.751Z,7.43
2017-06-05T16:37:39.206Z,7.63
2017-06-05T16:40:06.662Z,7.20
2017-06-05T16:42:34.123Z,8.37
2017-06-05T16:45:01.601Z,7.93
2017-06-05T16:47:29.035Z,6.73
2017-06-05T16:49:56.491Z,7.80
2017-06-05T16:52:23.939Z,7.87
2017-06-05T16:54:51.379Z,7.50
2017-06-05T16:57:18.819Z,8.57
2017-06-05T16:59:47.070Z,8.53
2017-06-05T17:02:15.284Z,6.60
2017-06-05T17:04:42.728Z,7.70
2017-06-05T17:07:10.175Z,6.53
2017-06-05T17:09:37.615Z,7.10
2017-06-05T17:12:05.834Z,6.87
2017-06-05T17:14:33.315Z,7.00
2017-06-05T17:17:00.775Z,6.90
2017-06-05T17:19:28.233Z,7.13
2017-06-05T17:21:55.683Z,7.33
2017-06-05T17:24:23.139Z,7.40
2017-06-05T17:26:50.595Z,7.40
2017-06-05T17:29:18.035Z,6.57
2017-06-05T17:31:45.483Z,7.33
2017-06-05T17:34:13.695Z,6.83
2017-06-05T17:36:41.143Z,6.23
2017-06-05T17:39:08.602Z,7.33
2017-06-05T17:41:36.055Z,7.73
2017-06-05T17:44:03.503Z,8.40
2017-06-05T17:46:30.979Z,7.17
2017-06-05T17:48:58.418Z,8.30
2017-06-05T17:51:26.639Z,7.50
2017-06-05T17:53:54.118Z,8.03
2017-06-05T17:56:21.564Z,7.20
2017-06-05T17:58:49.019Z,6.57
2017-06-05T18:01:16.465Z,6.07
2017-06-05T18:03:43.916Z,6.40
2017-06-05T18:06:11.358Z,5.80
2017-06-05T18:08:38.811Z,6.33
2017-06-05T18:11:06.247Z,6.50
2017-06-05T18:13:33.707Z,7.10
2017-06-05T18:16:01.147Z,6.90
2017-06-05T18:18:28.603Z,6.80
2017-06-05T18:20:56.059Z,6.90
2017-06-05T18:23:23.535Z,6.60
2017-06-05T18:25:50.987Z,6.90
2017-06-05T18:28:18.430Z,6.27
2017-06-05T18:30:45.880Z,7.00
2017-06-05T18:33:13.322Z,7.20
2017-06-05T18:35:40.775Z,7.20
2017-06-05T18:38:08.218Z,7.00
2017-06-05T18:40:36.439Z,7.40
2017-06-05T18:43:03.891Z,6.70
2017-06-05T18:45:31.352Z,6.60
2017-06-05T18:47:58.786Z,6.43
2017-06-05T18:50:26.244Z,7.03
2017-06-05T18:52:53.697Z,6.87
2017-06-05T18:55:21.169Z,6.60
2017-06-05T18:57:49.379Z,8.33
2017-06-05T19:00:16.823Z,5.87
2017-06-05T19:02:44.289Z,6.20
2017-06-05T19:05:12.495Z,7.17
2017-06-05T19:07:40.788Z,7.20
2017-06-05T19:10:08.234Z,6.70
2017-06-05T19:12:35.678Z,7.43
2017-06-05T19:15:03.132Z,6.43
2017-06-05T19:17:30.579Z,6.73
2017-06-05T19:19:58.051Z,6.83
2017-06-05T19:22:25.505Z,7.30
2017-06-05T19:24:52.947Z,6.50
2017-06-05T19:27:20.399Z,7.53
2017-06-05T19:29:47.850Z,7.30
2017-06-05T19:32:15.296Z,6.73
2017-06-05T19:34:42.747Z,6.63
2017-06-05T19:37:10.203Z,7.03
2017-06-05T19:39:37.659Z,7.60
2017-06-05T19:42:05.109Z,7.47
2017-06-05T19:44:32.566Z,7.27
2017-06-05T19:46:59.994Z,6.97
2017-06-05T19:49:27.447Z,6.87
2017-06-05T19:51:55.868Z,6.60
2017-06-05T19:54:23.319Z,7.63
2017-06-05T19:56:50.755Z,7.03
2017-06-05T19:59:18.203Z,6.33
2017-06-05T20:01:45.651Z,7.27
2017-06-05T20:04:13.864Z,7.20
2017-06-05T20:06:41.318Z,6.93
2017-06-05T20:09:08.775Z,6.80
2017-06-05T20:11:36.254Z,6.70
2017-06-05T20:14:03.683Z,7.10
2017-06-05T20:16:31.170Z,6.53
2017-06-05T20:18:58.642Z,6.77
2017-06-05T20:21:26.084Z,6.73
2017-06-05T20:23:54.303Z,6.40
2017-06-05T20:26:21.760Z,6.30
2017-06-05T20:28:49.217Z,6.30
2017-06-05T20:31:16.697Z,6.60
2017-06-05T20:33:44.144Z,7.07
2017-06-05T20:36:12.503Z,6.87
2017-06-05T20:38:39.946Z,7.20
2017-06-05T20:41:07.395Z,8.03
2017-06-05T20:43:34.839Z,7.30
2017-06-05T20:46:03.064Z,6.70
2017-06-05T20:48:30.503Z,6.37
2017-06-05T20:50:57.958Z,7.97
2017-06-05T20:53:25.403Z,6.50
2017-06-05T20:55:52.851Z,6.90
2017-06-05T20:58:20.295Z,6.60
2017-06-05T21:00:47.747Z,6.07
2017-06-05T21:03:15.959Z,6.87
2017-06-05T21:05:43.415Z,7.27
2017-06-05T21:08:10.863Z,6.27
2017-06-05T21:10:38.312Z,6.57
2017-06-05T21:13:05.755Z,6.70
2017-06-05T21:15:33.215Z,7.30
2017-06-05T21:18:01.566Z,7.60
2017-06-05T21:20:29.011Z,8.07
2017-06-05T21:22:56.466Z,8.07
2017-06-05T21:25:23.913Z,8.37
2017-06-05T21:27:51.360Z,7.30
2017-06-05T21:30:18.799Z,7.97
2017-06-05T21:32:47.024Z,7.70
2017-06-05T21:35:14.467Z,7.83
2017-06-05T21:37:41.923Z,7.50
2017-06-05T21:40:09.378Z,6.80
2017-06-05T21:42:36.847Z,7.20
2017-06-05T21:45:04.293Z,7.30
2017-06-05T21:47:31.739Z,6.93
2017-06-05T21:49:59.179Z,6.60
2017-06-05T21:52:26.622Z,7.07
2017-06-05T21:54:54.834Z,6.90
2017-06-05T21:57:22.289Z,6.70
2017-06-05T21:59:49.732Z,7.30
2017-06-05T22:02:17.212Z,6.90
2017-06-05T22:04:44.674Z,6.20
2017-06-05T22:07:12.123Z,6.40
2017-06-05T22:09:39.574Z,6.40
2017-06-05T22:12:07.013Z,5.60
2017-06-05T22:14:34.459Z,5.83
2017-06-05T22:17:02.463Z,6.43
2017-06-05T22:19:29.907Z,6.83
2017-06-05T22:21:57.349Z,7.47
2017-06-05T22:24:24.795Z,5.60
2017-06-05T22:26:52.233Z,7.17
2017-06-05T22:29:19.695Z,7.13
2017-06-05T22:31:47.903Z,8.10
2017-06-05T22:34:15.359Z,7.70
2017-06-05T22:36:42.810Z,7.10
2017-06-05T22:39:10.251Z,6.43
2017-06-05T22:41:37.695Z,6.50
2017-06-05T22:44:05.151Z,7.03
2017-06-05T22:46:32.590Z,7.30
2017-06-05T22:49:00.034Z,7.20
2017-06-05T22:51:27.479Z,7.23
2017-06-05T22:53:54.959Z,7.60
2017-06-05T22:56:22.403Z,7.20
2017-06-05T22:58:49.843Z,6.73
2017-06-05T23:01:18.070Z,7.40
2017-06-05T23:03:45.520Z,7.30
2017-06-05T23:06:12.974Z,7.80
2017-06-05T23:08:40.425Z,7.00
2017-06-05T23:11:07.866Z,7.70
2017-06-05T23:13:35.311Z,7.40
2017-06-05T23:16:02.759Z,6.93
2017-06-05T23:18:30.217Z,8.03
2017-06-05T23:20:58.427Z,8.40
2017-06-05T23:23:25.872Z,7.80
2017-06-05T23:25:53.319Z,8.17
2017-06-05T23:28:20.762Z,8.13
2017-06-05T23:30:48.204Z,7.50
2017-06-05T23:33:15.653Z,7.97
2017-06-05T23:35:43.863Z,7.73
2017-06-05T23:38:11.319Z,8.30
2017-06-05T23:40:38.771Z,7.63
2017-06-05T23:43:06.239Z,8.43
2017-06-05T23:45:33.688Z,7.97
2017-06-05T23:48:01.143Z,7.77
2017-06-05T23:50:28.592Z,7.90
2017-06-05T23:52:56.048Z,9.40
2017-06-05T23:55:23.487Z,7.87
2017-06-05T23:57:50.919Z,8.07
